Time;durP1;ratioP1;P1;durP2;ratioP2;P2;SDS_P1;SDS_P2;PMS_P1;PMS_P2;Temp;Humidity;BMP_temperature;BMP_pressure;BME280_temperature;BME280_humidity;BME280_pressure;Samples;Min_cycle;Max_cycle;Signal;HPM_P1;HPM_P2
2022/12/20 00:01:55;;;;;;;1.77;1.40;;;17.50;52.70;;;;;;5053224;28;20174;-62
2022/12/20 00:04:20;;;;;;;1.50;1.40;;;17.40;52.70;;;;;;5052748;28;20171;-63
2022/12/20 00:06:46;;;;;;;1.50;1.40;;;17.40;52.70;;;;;;5052899;28;20178;-63
2022/12/20 00:09:11;;;;;;;1.60;1.50;;;17.40;52.70;;;;;;5053510;28;20236;-64
2022/12/20 00:11:38;;;;;;;2.00;1.80;;;17.40;52.70;;;;;;5052556;28;20171;-63
2022/12/20 00:14:04;;;;;;;1.80;1.48;;;17.40;52.80;;;;;;5053192;28;20179;-63
2022/12/20 00:16:29;;;;;;;2.30;1.73;;;17.40;52.70;;;;;;5053211;28;20219;-63
2022/12/20 00:18:56;;;;;;;1.40;1.30;;;17.40;52.70;;;;;;5052243;28;20266;-63
2022/12/20 00:21:22;;;;;;;1.60;1.50;;;17.40;52.70;;;;;;5053093;28;20195;-63
2022/12/20 00:23:47;;;;;;;1.42;1.33;;;17.30;52.70;;;;;;5052066;28;20176;-63
2022/12/20 00:26:15;;;;;;;2.05;1.70;;;17.30;52.70;;;;;;5053292;28;20171;-62
2022/12/20 00:28:41;;;;;;;1.50;1.40;;;17.30;52.70;;;;;;5052901;28;20305;-63
2022/12/20 00:31:07;;;;;;;1.60;1.50;;;17.30;52.80;;;;;;5052332;28;20199;-63
2022/12/20 00:33:36;;;;;;;1.75;1.65;;;17.30;52.70;;;;;;5052616;28;20592;-63
2022/12/20 00:36:02;;;;;;;1.55;1.45;;;17.30;52.80;;;;;;5052861;28;20245;-63
2022/12/20 00:38:27;;;;;;;2.08;1.50;;;17.20;52.70;;;;;;5052095;28;20586;-63
2022/12/20 00:41:10;;;;;;;1.60;1.42;;;17.20;52.70;;;;;;5052570;28;20179;-63
2022/12/20 00:43:36;;;;;;;1.83;1.73;;;17.20;52.80;;;;;;5052578;28;20189;-63
2022/12/20 00:46:01;;;;;;;1.50;1.40;;;17.20;52.80;;;;;;5052190;28;20175;-63
2022/12/20 00:48:27;;;;;;;1.27;1.13;;;17.20;52.80;;;;;;5052765;28;20569;-63
2022/12/20 00:51:03;;;;;;;1.65;1.55;;;17.20;52.80;;;;;;5052459;28;20614;-63
2022/12/20 00:53:28;;;;;;;1.75;1.55;;;17.20;52.80;;;;;;5050933;28;20633;-63
2022/12/20 00:55:54;;;;;;;2.25;1.52;;;17.20;52.80;;;;;;5053656;28;20233;-63
2022/12/20 00:58:20;;;;;;;1.40;1.30;;;17.20;52.80;;;;;;5056874;28;20617;-63
2022/12/20 01:00:45;;;;;;;1.38;1.27;;;17.20;52.80;;;;;;5055802;28;20171;-62
2022/12/20 01:03:11;;;;;;;1.38;1.27;;;17.10;52.80;;;;;;5057015;28;20180;-64
2022/12/20 01:05:36;;;;;;;1.30;1.20;;;17.10;52.80;;;;;;5056705;28;20183;-63
2022/12/20 01:08:02;;;;;;;2.15;1.33;;;17.10;52.80;;;;;;5056211;28;20175;-64
2022/12/20 01:10:28;;;;;;;1.85;1.50;;;17.10;52.80;;;;;;5056826;28;20209;-64
2022/12/20 01:12:54;;;;;;;1.50;1.38;;;17.00;52.70;;;;;;5055643;28;20167;-63
2022/12/20 01:15:20;;;;;;;1.45;1.35;;;17.10;52.80;;;;;;5056398;28;20219;-64
2022/12/20 01:17:45;;;;;;;1.70;1.55;;;17.10;52.80;;;;;;5056260;28;20218;-63
2022/12/20 01:20:11;;;;;;;1.40;1.30;;;17.10;53.40;;;;;;5056011;28;20485;-63
2022/12/20 01:22:37;;;;;;;1.88;1.65;;;17.10;52.80;;;;;;5056486;28;20179;-63
2022/12/20 01:25:02;;;;;;;2.65;1.55;;;17.10;52.80;;;;;;5056625;28;20596;-62
2022/12/20 01:27:28;;;;;;;1.42;1.33;;;17.00;52.80;;;;;;5055846;28;20649;-61
2022/12/20 01:29:53;;;;;;;1.42;1.33;;;17.00;52.80;;;;;;5056024;28;20638;-62
2022/12/20 01:32:19;;;;;;;1.58;1.48;;;17.00;52.80;;;;;;5056277;28;20625;-63
2022/12/20 01:34:44;;;;;;;1.75;1.60;;;17.00;53.50;;;;;;5055456;28;20262;-63
2022/12/20 01:37:10;;;;;;;1.80;1.20;;;17.00;52.80;;;;;;5056290;28;20696;-64
2022/12/20 01:39:36;;;;;;;1.52;1.42;;;17.00;52.80;;;;;;5056074;28;20183;-63
2022/12/20 01:42:01;;;;;;;1.45;1.35;;;17.00;52.90;;;;;;5055586;28;20227;-62
2022/12/20 01:44:26;;;;;;;1.45;1.35;;;17.00;52.90;;;;;;5056284;28;20544;-64
2022/12/20 01:46:53;;;;;;;1.35;1.25;;;17.00;52.90;;;;;;5055706;28;20533;-62
2022/12/20 01:49:21;;;;;;;1.65;1.50;;;17.00;52.90;;;;;;5055935;28;20167;-63
2022/12/20 01:51:49;;;;;;;1.40;1.30;;;16.90;52.90;;;;;;5055592;28;20267;-62
2022/12/20 01:54:17;;;;;;;2.65;1.60;;;16.90;52.90;;;;;;5054801;28;20602;-63
2022/12/20 01:56:45;;;;;;;1.00;1.00;;;17.00;52.90;;;;;;5054888;28;20206;-63
2022/12/20 01:59:11;;;;;;;1.40;1.30;;;16.90;52.90;;;;;;5055800;28;20224;-63
2022/12/20 02:01:36;;;;;;;1.30;1.20;;;16.90;52.90;;;;;;5037876;28;20179;-62
2022/12/20 02:04:02;;;;;;;1.50;1.40;;;16.90;53.50;;;;;;5055132;28;20179;-62
2022/12/20 02:06:28;;;;;;;1.60;1.50;;;16.90;52.90;;;;;;5055660;28;20179;-63
2022/12/20 02:08:56;;;;;;;1.33;1.23;;;16.90;52.90;;;;;;5055513;28;20174;-63
2022/12/20 02:11:35;;;;;;;1.77;1.58;;;16.90;52.90;;;;;;5055018;28;20183;-62
2022/12/20 02:14:30;;;;;;;1.65;1.30;;;16.90;52.90;;;;;;5055545;28;20175;-63
2022/12/20 02:17:12;;;;;;;1.45;1.30;;;16.90;52.90;;;;;;5054739;28;20621;-63
2022/12/20 02:20:06;;;;;;;1.42;1.33;;;16.90;52.90;;;;;;5038763;28;20244;-62
2022/12/20 02:23:03;;;;;;;1.45;1.25;;;16.80;52.90;;;;;;5055066;28;20531;-62
2022/12/20 02:26:00;;;;;;;1.27;1.17;;;16.80;52.90;;;;;;5042443;28;20184;-62
2022/12/20 02:28:54;;;;;;;1.40;1.30;;;16.90;53.00;;;;;;5054143;28;20202;-62
2022/12/20 02:31:23;;;;;;;1.10;1.00;;;16.80;52.90;;;;;;5053345;28;20548;-62
2022/12/20 02:33:49;;;;;;;1.85;1.35;;;16.80;53.00;;;;;;5037568;28;20206;-62
2022/12/20 02:36:17;;;;;;;1.25;1.20;;;16.80;52.90;;;;;;5053806;28;20295;-63
2022/12/20 02:38:43;;;;;;;1.48;1.38;;;16.80;53.00;;;;;;5054117;28;20182;-63
2022/12/20 02:41:24;;;;;;;1.60;1.50;;;16.80;53.00;;;;;;5055240;28;20175;-63
2022/12/20 02:46:37;;;;;;;1.30;1.20;;;16.70;53.00;;;;;;5039298;28;20186;-63
2022/12/20 02:49:06;;;;;;;1.52;1.40;;;16.80;53.00;;;;;;5054766;28;20167;-63
2022/12/20 02:51:32;;;;;;;1.35;1.10;;;16.80;53.00;;;;;;5036342;28;20646;-62
2022/12/20 02:53:58;;;;;;;1.48;1.38;;;16.80;53.00;;;;;;5054733;28;20171;-62
2022/12/20 02:56:36;;;;;;;1.50;1.40;;;16.80;53.00;;;;;;5037077;28;20199;-63
2022/12/20 02:59:15;;;;;;;1.67;1.25;;;16.70;53.00;;;;;;5036983;28;20252;-62
2022/12/20 03:01:49;;;;;;;1.50;1.38;;;16.70;53.00;;;;;;5053103;28;20179;-62
2022/12/20 03:04:15;;;;;;;1.35;1.08;;;16.70;53.00;;;;;;5037643;28;20227;-63
2022/12/20 03:06:58;;;;;;;1.20;1.10;;;16.70;53.00;;;;;;5052530;28;20211;-63
2022/12/20 03:09:24;;;;;;;1.30;1.20;;;16.70;53.00;;;;;;5054551;28;20266;-63
2022/12/20 03:11:50;;;;;;;1.30;1.20;;;16.70;53.00;;;;;;5054105;28;20293;-65
2022/12/20 03:14:15;;;;;;;1.48;1.38;;;16.70;53.10;;;;;;5052087;28;20179;-62
2022/12/20 03:16:41;;;;;;;1.85;1.23;;;16.70;53.10;;;;;;5054176;28;20222;-62
2022/12/20 03:19:06;;;;;;;1.42;1.33;;;16.70;53.10;;;;;;5053870;28;20178;-63
2022/12/20 03:21:32;;;;;;;1.38;1.25;;;16.70;53.10;;;;;;5053353;28;20179;-62
2022/12/20 03:23:57;;;;;;;1.60;1.50;;;16.70;53.10;;;;;;5054280;28;20177;-62
2022/12/20 03:26:23;;;;;;;1.90;1.30;;;16.70;53.10;;;;;;5054132;28;20254;-62
2022/12/20 03:28:48;;;;;;;1.40;1.30;;;16.70;53.10;;;;;;5053184;28;20198;-62
2022/12/20 03:31:14;;;;;;;1.40;1.30;;;16.70;53.10;;;;;;5054202;28;20179;-63
2022/12/20 03:33:39;;;;;;;1.30;1.20;;;16.60;53.10;;;;;;5053229;28;20526;-63
2022/12/20 03:36:05;;;;;;;1.40;1.30;;;16.70;53.10;;;;;;5053759;28;20641;-64
2022/12/20 03:38:30;;;;;;;1.30;1.20;;;16.60;53.10;;;;;;5053716;28;20175;-63
2022/12/20 03:40:56;;;;;;;1.17;1.17;;;16.60;53.10;;;;;;5053203;28;20175;-63
2022/12/20 03:43:21;;;;;;;0.90;0.90;;;16.60;53.10;;;;;;5053743;28;20186;-63
2022/12/20 03:45:47;;;;;;;1.30;1.17;;;16.70;53.20;;;;;;5053391;28;20167;-63
2022/12/20 03:48:12;;;;;;;1.85;1.50;;;16.60;53.10;;;;;;5053036;28;20183;-64
2022/12/20 03:50:38;;;;;;;1.25;1.15;;;16.60;53.10;;;;;;5053308;28;20189;-62
2022/12/20 03:53:03;;;;;;;1.25;1.15;;;16.60;53.10;;;;;;5053598;28;20261;-63
2022/12/20 03:55:29;;;;;;;1.60;1.25;;;16.60;53.10;;;;;;5052997;28;20250;-63
2022/12/20 03:57:54;;;;;;;1.30;1.20;;;16.60;53.20;;;;;;5053304;28;20210;-62
2022/12/20 04:00:20;;;;;;;1.17;1.10;;;16.60;53.10;;;;;;5053480;28;20540;-62
2022/12/20 04:02:46;;;;;;;1.77;1.10;;;16.60;53.20;;;;;;5052437;28;20194;-62
2022/12/20 04:05:11;;;;;;;1.15;1.15;;;16.60;53.20;;;;;;5053560;28;20167;-64
2022/12/20 04:07:37;;;;;;;1.60;1.50;;;16.60;53.20;;;;;;5053291;28;20602;-64
2022/12/20 04:10:06;;;;;;;1.35;1.20;;;16.60;53.20;;;;;;5052657;28;20171;-63
2022/12/20 04:12:32;;;;;;;2.75;1.30;;;16.50;53.20;;;;;;5053082;28;20636;-63
2022/12/20 04:14:57;;;;;;;1.40;1.17;;;16.50;53.20;;;;;;5052986;28;20314;-63
2022/12/20 04:17:23;;;;;;;1.40;1.27;;;16.50;53.20;;;;;;5052330;28;20222;-63
2022/12/20 04:19:48;;;;;;;1.35;1.25;;;16.50;53.20;;;;;;5053087;28;20274;-62
2022/12/20 04:22:14;;;;;;;1.30;1.20;;;16.50;53.20;;;;;;5053276;28;20181;-63
2022/12/20 04:24:39;;;;;;;1.80;1.40;;;16.50;53.30;;;;;;5052204;28;20258;-62
2022/12/20 04:27:05;;;;;;;1.20;1.13;;;16.50;53.30;;;;;;5053049;28;20271;-61
2022/12/20 04:29:30;;;;;;;1.33;1.15;;;16.50;53.30;;;;;;5052954;28;20254;-62
2022/12/20 04:31:56;;;;;;;1.23;1.10;;;16.50;53.20;;;;;;5051627;28;20265;-62
2022/12/20 04:34:21;;;;;;;1.20;1.20;;;16.50;53.20;;;;;;5053239;28;20179;-63
2022/12/20 04:36:47;;;;;;;1.55;1.27;;;16.40;53.30;;;;;;5051924;28;20298;-64
2022/12/20 04:39:13;;;;;;;1.40;1.30;;;16.50;53.30;;;;;;5052926;28;20261;-63
2022/12/20 04:41:38;;;;;;;1.30;1.20;;;16.50;53.30;;;;;;5052469;28;20698;-63
2022/12/20 04:44:04;;;;;;;1.63;1.52;;;16.50;53.30;;;;;;5052121;28;20629;-62
2022/12/20 04:46:29;;;;;;;1.45;1.13;;;16.50;53.30;;;;;;5052909;28;20217;-62
2022/12/20 04:48:55;;;;;;;1.27;1.17;;;16.50;53.40;;;;;;5052670;28;20175;-62
2022/12/20 04:51:20;;;;;;;1.50;1.40;;;16.50;53.30;;;;;;5052244;28;20214;-63
2022/12/20 04:53:46;;;;;;;1.25;1.15;;;16.40;53.30;;;;;;5052561;28;20175;-62
2022/12/20 04:56:32;;;;;;;1.20;1.20;;;16.40;53.30;;;;;;5052704;28;20203;-62
2022/12/20 04:58:58;;;;;;;1.67;1.10;;;16.40;53.40;;;;;;5051833;28;20183;-62
2022/12/20 05:01:23;;;;;;;1.23;1.13;;;16.40;53.30;;;;;;5052823;28;20197;-61
2022/12/20 05:03:49;;;;;;;1.00;1.00;;;16.40;53.30;;;;;;5052497;28;20201;-63
2022/12/20 05:06:15;;;;;;;1.42;1.33;;;16.40;53.30;;;;;;5051809;28;20167;-63
2022/12/20 05:08:40;;;;;;;1.02;1.02;;;16.40;53.30;;;;;;5052365;28;20183;-62
2022/12/20 05:11:06;;;;;;;0.90;0.90;;;16.40;53.40;;;;;;5052676;28;20206;-63
2022/12/20 05:13:32;;;;;;;1.60;1.17;;;16.30;53.30;;;;;;5051635;28;20175;-62
2022/12/20 05:15:57;;;;;;;1.20;1.10;;;16.40;53.40;;;;;;5052541;28;20233;-62
2022/12/20 05:18:23;;;;;;;1.30;1.20;;;16.40;53.40;;;;;;5052665;28;20273;-62
2022/12/20 05:26:16;;;;;;;1.10;1.00;;;16.30;53.30;;;;;;5051670;28;20180;-62
2022/12/20 05:26:18;;;;;;;1.30;1.13;;;16.40;53.40;;;;;;5051699;28;20214;-61
2022/12/20 05:28:44;;;;;;;0.80;0.80;;;16.30;53.30;;;;;;5052341;28;20175;-61
2022/12/20 05:31:09;;;;;;;3.17;1.25;;;16.40;53.40;;;;;;5052354;28;20622;-62
2022/12/20 05:33:35;;;;;;;1.20;1.10;;;16.30;53.40;;;;;;5051467;28;20661;-62
2022/12/20 05:36:00;;;;;;;1.35;1.25;;;16.40;53.40;;;;;;5052264;28;20626;-63
2022/12/20 05:38:26;;;;;;;1.20;1.10;;;16.30;53.40;;;;;;5052669;28;20669;-62
2022/12/20 05:40:52;;;;;;;1.88;1.45;;;16.30;53.40;;;;;;5051269;28;20229;-63
2022/12/20 05:43:17;;;;;;;1.08;1.08;;;16.30;53.40;;;;;;5055439;28;20217;-65
2022/12/20 05:45:47;;;;;;;1.33;1.20;;;16.30;53.40;;;;;;5055900;28;20189;-63
2022/12/20 05:48:13;;;;;;;1.08;1.08;;;16.30;53.40;;;;;;5055299;28;20254;-64
2022/12/20 05:50:38;;;;;;;1.02;0.90;;;16.30;53.40;;;;;;5055948;28;20712;-63
2022/12/20 05:53:04;;;;;;;1.50;1.17;;;16.30;53.40;;;;;;5056134;28;20245;-64
2022/12/20 05:55:30;;;;;;;1.10;1.05;;;16.30;53.50;;;;;;5055154;28;20528;-63
2022/12/20 05:57:56;;;;;;;1.33;1.10;;;16.30;53.50;;;;;;5055935;28;20215;-63
2022/12/20 06:00:22;;;;;;;1.67;1.27;;;16.30;53.50;;;;;;5055859;28;20274;-64
2022/12/20 06:02:47;;;;;;;1.48;1.30;;;16.30;53.50;;;;;;5054850;28;20608;-62
2022/12/20 06:05:13;;;;;;;1.10;1.00;;;16.30;53.50;;;;;;5055918;28;20171;-63
2022/12/20 06:07:38;;;;;;;1.20;1.10;;;16.30;53.50;;;;;;5055603;28;20176;-64
2022/12/20 06:10:05;;;;;;;1.33;1.00;;;16.30;53.50;;;;;;5055089;28;20535;-65
2022/12/20 06:12:30;;;;;;;1.50;1.10;;;16.30;53.50;;;;;;5055600;28;20186;-63
2022/12/20 06:14:56;;;;;;;2.05;1.10;;;16.30;53.50;;;;;;5055538;28;20230;-62
2022/12/20 06:17:21;;;;;;;0.95;0.95;;;16.30;53.50;;;;;;5054562;28;20217;-63
2022/12/20 06:19:47;;;;;;;1.10;1.10;;;16.30;53.50;;;;;;5054977;28;20203;-63
2022/12/20 06:22:13;;;;;;;1.20;1.10;;;16.30;53.50;;;;;;5055290;28;20241;-63
2022/12/20 06:24:38;;;;;;;1.40;1.23;;;16.30;53.50;;;;;;5054526;28;20163;-63
2022/12/20 06:27:05;;;;;;;1.35;1.25;;;16.30;53.50;;;;;;5055281;28;20262;-62
2022/12/20 06:29:31;;;;;;;1.50;1.40;;;16.20;53.50;;;;;;5054401;28;20187;-63
2022/12/20 06:31:57;;;;;;;0.80;0.80;;;16.20;53.50;;;;;;5055290;28;20550;-63
2022/12/20 06:34:22;;;;;;;0.80;0.80;;;16.20;53.50;;;;;;5055326;28;20175;-63
2022/12/20 06:36:48;;;;;;;0.90;0.90;;;16.20;53.50;;;;;;5054194;28;20217;-64
2022/12/20 06:39:14;;;;;;;1.15;1.05;;;16.30;53.50;;;;;;5055191;28;20528;-64
2022/12/20 06:41:39;;;;;;;1.88;1.40;;;16.20;53.50;;;;;;5054871;28;20171;-63
2022/12/20 06:44:05;;;;;;;1.15;1.05;;;16.20;53.60;;;;;;5054166;28;20174;-63
2022/12/20 06:46:31;;;;;;;1.30;1.20;;;16.20;53.60;;;;;;5054565;28;20186;-63
2022/12/20 06:48:57;;;;;;;1.60;1.25;;;16.20;53.60;;;;;;5054850;28;20197;-63
2022/12/20 06:51:22;;;;;;;1.00;0.90;;;16.20;53.50;;;;;;5054089;28;20210;-63
2022/12/20 06:53:48;;;;;;;1.10;1.05;;;16.20;53.50;;;;;;5053812;28;20183;-63
2022/12/20 06:56:13;;;;;;;1.40;1.00;;;16.20;53.60;;;;;;5054795;28;20668;-63
2022/12/20 06:58:39;;;;;;;1.10;1.00;;;16.20;53.50;;;;;;5053731;28;20175;-63
2022/12/20 07:01:04;;;;;;;1.20;1.10;;;16.20;53.50;;;;;;5054639;28;20254;-63
2022/12/20 07:03:30;;;;;;;1.05;1.00;;;16.20;53.50;;;;;;5054584;28;20656;-62
2022/12/20 07:05:56;;;;;;;1.40;1.30;;;16.30;53.60;;;;;;5054034;28;20206;-63
2022/12/20 07:08:21;;;;;;;1.30;1.20;;;16.30;53.50;;;;;;5054636;28;20597;-63
2022/12/20 07:10:47;;;;;;;1.40;1.30;;;16.30;53.40;;;;;;5054167;28;20634;-63
2022/12/20 07:13:13;;;;;;;1.17;1.08;;;16.40;53.50;;;;;;5053879;28;20179;-65
2022/12/20 07:15:38;;;;;;;1.15;1.05;;;16.40;53.40;;;;;;5053893;28;20348;-63
2022/12/20 07:18:05;;;;;;;1.40;1.17;;;16.40;53.30;;;;;;5054459;28;20203;-64
2022/12/20 07:20:31;;;;;;;1.20;1.10;;;16.50;53.30;;;;;;5053451;28;20171;-62
2022/12/20 07:22:56;;;;;;;1.15;0.98;;;16.60;53.20;;;;;;5054445;28;20592;-63
2022/12/20 07:25:23;;;;;;;1.20;1.10;;;16.70;53.10;;;;;;5054257;28;20175;-62
2022/12/20 07:27:49;;;;;;;1.00;1.00;;;16.70;53.00;;;;;;5053153;28;20565;-62
2022/12/20 07:30:15;;;;;;;0.93;0.93;;;16.80;53.00;;;;;;5054064;28;20171;-62
2022/12/20 07:32:41;;;;;;;1.58;1.00;;;16.90;52.80;;;;;;5053000;28;20175;-63
2022/12/20 07:35:07;;;;;;;1.58;0.95;;;17.00;52.70;;;;;;5054124;28;20582;-64
2022/12/20 07:37:32;;;;;;;1.95;1.42;;;17.10;52.60;;;;;;5052171;28;20217;-66
2022/12/20 07:39:58;;;;;;;1.52;1.10;;;17.10;52.70;;;;;;5053848;28;20170;-65
2022/12/20 07:42:24;;;;;;;1.95;0.95;;;17.10;52.70;;;;;;5055947;28;20232;-70
2022/12/20 07:44:49;;;;;;;2.33;1.00;;;17.20;53.00;;;;;;5053571;28;20213;-71
2022/12/20 07:47:15;;;;;;;1.13;1.00;;;17.30;53.10;;;;;;5052658;28;20175;-65
2022/12/20 07:49:40;;;;;;;1.15;1.05;;;17.30;53.00;;;;;;5053297;28;20166;-69
2022/12/20 07:52:06;;;;;;;6.45;1.60;;;17.30;53.20;;;;;;5053763;28;20178;-70
2022/12/20 07:54:41;;;;;;;2.22;1.20;;;17.40;53.30;;;;;;5051306;28;20178;-70
2022/12/20 07:57:11;;;;;;;2.35;1.00;;;17.50;53.10;;;;;;5052321;28;20206;-68
2022/12/20 07:59:39;;;;;;;1.25;1.15;;;17.60;53.00;;;;;;5053166;28;20203;-70
2022/12/20 08:02:06;;;;;;;1.60;1.25;;;17.70;53.00;;;;;;5051796;28;20190;-69
2022/12/20 08:04:32;;;;;;;1.48;1.10;;;17.70;52.90;;;;;;5052993;28;20202;-71
2022/12/20 08:06:58;;;;;;;1.63;1.20;;;17.70;53.00;;;;;;5051816;28;20637;-69
2022/12/20 08:09:24;;;;;;;1.25;1.10;;;17.70;53.00;;;;;;5052644;28;20179;-70
2022/12/20 08:11:49;;;;;;;2.72;1.30;;;17.60;53.20;;;;;;5053132;28;20346;-69
2022/12/20 08:14:15;;;;;;;2.88;1.50;;;17.60;53.30;;;;;;5051883;28;20246;-66
2022/12/20 08:16:42;;;;;;;3.72;1.25;;;17.50;53.40;;;;;;5051240;28;20240;-67
2022/12/20 08:19:08;;;;;;;2.55;1.30;;;17.40;53.80;;;;;;5053112;28;20182;-64
2022/12/20 08:21:33;;;;;;;4.13;1.42;;;17.40;53.80;;;;;;5052934;28;20174;-66
2022/12/20 08:23:59;;;;;;;3.65;1.15;;;17.30;54.00;;;;;;5052314;28;20228;-64
2022/12/20 08:26:25;;;;;;;1.50;1.30;;;17.20;54.00;;;;;;5052923;28;20175;-64
2022/12/20 08:28:50;;;;;;;4.13;1.63;;;17.10;54.20;;;;;;5052719;28;20182;-64
2022/12/20 08:31:16;;;;;;;3.63;1.40;;;17.10;54.30;;;;;;5052385;28;20174;-64
2022/12/20 08:33:41;;;;;;;3.53;1.40;;;17.00;54.30;;;;;;5052895;28;20175;-64
2022/12/20 08:36:09;;;;;;;1.88;1.00;;;17.00;54.50;;;;;;5052187;28;20171;-63
2022/12/20 08:38:34;;;;;;;2.05;1.33;;;16.90;54.50;;;;;;5052660;28;20183;-64
2022/12/20 08:41:04;;;;;;;3.03;1.40;;;16.90;54.70;;;;;;5053050;28;20182;-65
2022/12/20 08:43:30;;;;;;;1.25;1.15;;;16.80;54.70;;;;;;5052455;28;20175;-64
2022/12/20 08:45:55;;;;;;;1.70;1.10;;;16.90;54.90;;;;;;5052904;28;20535;-65
2022/12/20 08:48:21;;;;;;;4.97;1.35;;;16.90;55.00;;;;;;5052884;28;20621;-64
2022/12/20 08:50:47;;;;;;;1.48;1.13;;;16.90;55.00;;;;;;5051897;28;20198;-64
2022/12/20 08:53:12;;;;;;;1.00;0.90;;;16.90;55.00;;;;;;5052919;28;20263;-64
2022/12/20 08:55:39;;;;;;;1.67;1.17;;;16.80;54.90;;;;;;5052678;28;20569;-64
2022/12/20 08:58:04;;;;;;;2.30;1.13;;;16.80;55.00;;;;;;5051836;28;20229;-64
2022/12/20 09:00:30;;;;;;;1.27;1.15;;;16.80;54.90;;;;;;5051440;28;20175;-64
2022/12/20 09:02:56;;;;;;;2.30;1.02;;;16.80;55.00;;;;;;5052860;28;20687;-64
2022/12/20 09:05:21;;;;;;;1.52;1.40;;;16.80;55.00;;;;;;5052108;28;20171;-64
2022/12/20 09:07:47;;;;;;;1.75;1.10;;;16.80;55.00;;;;;;5052442;28;20258;-64
2022/12/20 09:10:13;;;;;;;1.67;1.33;;;16.70;55.10;;;;;;5052764;28;20179;-64
2022/12/20 09:12:39;;;;;;;2.53;1.23;;;16.70;55.20;;;;;;5051671;28;20225;-64
2022/12/20 09:15:05;;;;;;;1.58;1.10;;;16.80;55.20;;;;;;5052558;28;20223;-64
2022/12/20 09:17:30;;;;;;;1.60;1.00;;;16.80;55.30;;;;;;5054499;28;20206;-64
2022/12/20 09:19:56;;;;;;;1.08;1.00;;;16.80;55.20;;;;;;5055858;28;20167;-64
2022/12/20 09:22:21;;;;;;;1.75;1.02;;;16.80;55.20;;;;;;5056535;28;20183;-64
2022/12/20 09:24:48;;;;;;;1.27;1.17;;;16.80;55.20;;;;;;5056332;28;20179;-64
2022/12/20 09:27:13;;;;;;;2.13;1.00;;;16.70;55.20;;;;;;5055666;28;20190;-63
2022/12/20 09:29:39;;;;;;;1.27;1.17;;;16.70;55.80;;;;;;5056288;28;20182;-64
2022/12/20 09:32:05;;;;;;;1.35;1.25;;;16.70;55.30;;;;;;5056382;28;20634;-63
2022/12/20 09:34:30;;;;;;;1.25;1.00;;;16.70;55.30;;;;;;5055558;28;20171;-63
2022/12/20 09:36:56;;;;;;;1.88;1.08;;;16.60;55.40;;;;;;5056191;28;20233;-63
2022/12/20 09:39:21;;;;;;;2.33;1.10;;;16.70;55.50;;;;;;5055597;28;20171;-64
2022/12/20 09:41:47;;;;;;;1.48;1.10;;;16.70;55.50;;;;;;5056033;28;20264;-65
2022/12/20 09:44:33;;;;;;;1.10;1.00;;;16.70;55.40;;;;;;5055108;28;20182;-65
2022/12/20 09:47:04;;;;;;;1.45;0.95;;;16.70;55.30;;;;;;5055561;28;20203;-64
2022/12/20 09:49:32;;;;;;;1.30;1.20;;;16.70;55.30;;;;;;5055029;28;20258;-64
2022/12/20 09:52:34;;;;;;;1.85;1.25;;;16.70;55.30;;;;;;5054777;28;20183;-64
2022/12/20 09:55:06;;;;;;;2.80;1.48;;;16.70;55.30;;;;;;5055439;28;20216;-63
2022/12/20 09:57:47;;;;;;;3.00;1.38;;;16.70;55.40;;;;;;5055537;28;20268;-64
2022/12/20 10:00:14;;;;;;;1.55;0.93;;;16.70;55.40;;;;;;5055965;28;20201;-65
2022/12/20 10:02:39;;;;;;;1.38;1.27;;;16.70;55.50;;;;;;5054687;28;20254;-65
2022/12/20 10:05:26;;;;;;;2.28;1.17;;;16.70;55.50;;;;;;5055721;28;20258;-63
2022/12/20 10:08:01;;;;;;;1.63;1.10;;;16.70;55.50;;;;;;5053863;28;20179;-63
2022/12/20 10:10:31;;;;;;;2.92;1.10;;;16.70;55.50;;;;;;5038513;28;20185;-64
2022/12/20 10:13:27;;;;;;;2.78;1.20;;;16.80;55.40;;;;;;5055572;28;20186;-63
2022/12/20 10:16:12;;;;;;;1.40;1.17;;;16.80;55.30;;;;;;5054333;28;20230;-64
2022/12/20 10:18:57;;;;;;;1.10;1.00;;;16.70;55.30;;;;;;5054082;28;20210;-64
2022/12/20 10:21:50;;;;;;;2.13;1.20;;;16.70;55.40;;;;;;5054271;28;20248;-64
2022/12/20 10:24:20;;;;;;;1.08;0.90;;;16.70;55.40;;;;;;5055455;28;20179;-66
2022/12/20 10:26:48;;;;;;;0.90;0.90;;;16.70;55.50;;;;;;5055079;28;20175;-66
2022/12/20 10:29:16;;;;;;;2.15;1.10;;;16.70;55.50;;;;;;5035621;28;20171;-64
2022/12/20 10:31:42;;;;;;;1.83;1.20;;;16.70;55.50;;;;;;5054934;28;20547;-70
2022/12/20 10:34:08;;;;;;;0.82;0.82;;;16.70;55.60;;;;;;5055141;28;20273;-68
2022/12/20 10:36:34;;;;;;;1.70;1.10;;;16.80;55.60;;;;;;5054105;28;20601;-68
2022/12/20 10:39:01;;;;;;;2.28;1.17;;;16.90;55.60;;;;;;5055024;28;20186;-68
2022/12/20 10:41:28;;;;;;;3.17;1.33;;;17.00;55.40;;;;;;5054995;28;20654;-67
2022/12/20 10:43:55;;;;;;;1.92;1.10;;;17.20;55.20;;;;;;5052629;28;20179;-72
2022/12/20 10:46:20;;;;;;;3.17;1.08;;;17.40;55.00;;;;;;5053556;28;20179;-74
2022/12/20 10:48:46;;;;;;;2.50;1.05;;;17.70;54.60;;;;;;5054312;28;20539;-74
2022/12/20 10:51:15;;;;;;;1.83;0.90;;;17.90;54.20;;;;;;5054360;28;20175;-70
2022/12/20 10:54:01;;;;;;;1.67;1.00;;;18.10;53.80;;;;;;5054569;28;20179;-70
2022/12/20 10:56:30;;;;;;;2.92;1.15;;;18.40;53.30;;;;;;5054844;28;20218;-69
2022/12/20 10:58:58;;;;;;;2.30;1.30;;;18.60;52.90;;;;;;5053988;28;20179;-68
2022/12/20 11:01:30;;;;;;;1.42;0.90;;;18.80;52.60;;;;;;5054592;28;20179;-70
2022/12/20 11:03:56;;;;;;;0.85;0.82;;;18.90;52.40;;;;;;5053797;28;20302;-69
2022/12/20 11:06:25;;;;;;;1.05;0.88;;;19.00;52.20;;;;;;5054720;28;20184;-70
2022/12/20 11:08:51;;;;;;;1.45;0.70;;;19.10;52.10;;;;;;5054285;28;20211;-71
2022/12/20 11:11:21;;;;;;;1.95;1.05;;;19.10;52.00;;;;;;5053814;28;20261;-71
2022/12/20 11:13:48;;;;;;;1.23;0.90;;;19.20;51.80;;;;;;5054394;28;20179;-70
2022/12/20 11:16:40;;;;;;;2.45;1.13;;;19.10;51.70;;;;;;5054105;28;20234;-69
2022/12/20 11:19:06;;;;;;;2.60;1.17;;;19.10;51.60;;;;;;5052499;28;20201;-68
2022/12/20 11:21:34;;;;;;;1.67;1.10;;;19.00;51.80;;;;;;5055754;28;20190;-67
2022/12/20 11:24:09;;;;;;;1.38;0.95;;;19.00;51.90;;;;;;5055518;28;20174;-69
2022/12/20 11:26:54;;;;;;;1.83;0.93;;;18.90;52.10;;;;;;5053354;28;20193;-70
2022/12/20 11:29:45;;;;;;;3.65;0.82;;;18.80;52.20;;;;;;5054417;28;20171;-69
2022/12/20 11:32:20;;;;;;;2.78;0.90;;;18.90;52.20;;;;;;5052093;28;20253;-69
2022/12/20 11:35:00;;;;;;;2.97;1.08;;;18.90;52.20;;;;;;5052664;28;20167;-69
2022/12/20 11:37:26;;;;;;;1.92;0.95;;;19.00;52.00;;;;;;5054001;28;20218;-69
2022/12/20 11:40:23;;;;;;;5.85;1.25;;;19.10;52.00;;;;;;5051012;28;20171;-72
2022/12/20 11:43:04;;;;;;;2.90;1.00;;;19.20;51.90;;;;;;5052363;28;20178;-70
2022/12/20 11:46:01;;;;;;;3.92;1.10;;;19.30;51.80;;;;;;5053906;28;20240;-72
2022/12/20 11:48:33;;;;;;;3.15;1.00;;;19.40;51.60;;;;;;5049191;28;20191;-72
2022/12/20 11:51:12;;;;;;;1.00;0.90;;;19.40;51.60;;;;;;5053939;28;20175;-72
2022/12/20 11:54:00;;;;;;;1.10;0.75;;;19.50;51.50;;;;;;5035311;28;20681;-70
2022/12/20 11:56:36;;;;;;;2.40;0.98;;;19.50;51.50;;;;;;5052116;28;20190;-70
2022/12/20 11:59:19;;;;;;;1.77;0.80;;;19.50;51.40;;;;;;5052421;28;20171;-67
2022/12/20 12:01:51;;;;;;;1.08;0.90;;;19.50;51.50;;;;;;5051743;28;20301;-70
2022/12/20 12:04:21;;;;;;;3.20;1.20;;;19.50;51.60;;;;;;5036645;28;20199;-69
2022/12/20 12:07:07;;;;;;;1.38;0.80;;;19.50;51.60;;;;;;5052106;28;20212;-70
2022/12/20 12:09:39;;;;;;;1.63;0.80;;;19.50;51.60;;;;;;5053105;28;20174;-70
2022/12/20 12:12:23;;;;;;;4.18;0.98;;;19.50;51.60;;;;;;5052300;28;20236;-67
2022/12/20 12:14:59;;;;;;;3.10;0.70;;;19.50;51.50;;;;;;5051116;28;20254;-67
2022/12/20 12:17:38;;;;;;;1.92;0.98;;;19.60;51.60;;;;;;5051827;28;20283;-69
2022/12/20 12:20:32;;;;;;;1.70;1.13;;;19.50;51.60;;;;;;5051650;28;20202;-69
2022/12/20 12:23:04;;;;;;;1.85;0.90;;;19.50;51.70;;;;;;5052778;28;20221;-69
2022/12/20 12:25:29;;;;;;;4.18;0.90;;;19.40;51.80;;;;;;5035955;28;20258;-69
2022/12/20 12:27:55;;;;;;;1.80;0.90;;;19.40;51.90;;;;;;5034853;28;20258;-69
2022/12/20 12:30:21;;;;;;;0.82;0.70;;;19.30;51.90;;;;;;5052243;28;20177;-70
2022/12/20 12:32:49;;;;;;;0.90;0.80;;;19.20;52.20;;;;;;5053024;28;20662;-68
2022/12/20 12:35:22;;;;;;;1.73;0.82;;;19.10;52.30;;;;;;5052347;28;20228;-69
2022/12/20 12:38:00;;;;;;;1.80;0.93;;;19.00;52.60;;;;;;5051624;28;20215;-68
2022/12/20 12:40:38;;;;;;;2.25;1.13;;;19.00;52.80;;;;;;5051715;28;20171;-68
2022/12/20 12:43:41;;;;;;;2.03;0.90;;;19.00;53.00;;;;;;5052199;28;20191;-68
2022/12/20 12:46:33;;;;;;;1.48;0.77;;;18.90;53.10;;;;;;5052892;28;20181;-69
2022/12/20 12:49:09;;;;;;;3.13;1.00;;;18.90;53.20;;;;;;5051918;28;20172;-65
2022/12/20 12:51:37;;;;;;;0.77;0.77;;;18.90;53.10;;;;;;5050510;28;20600;-66
2022/12/20 12:54:03;;;;;;;1.33;0.80;;;18.80;53.10;;;;;;5052670;28;20176;-66
2022/12/20 12:56:30;;;;;;;1.77;1.17;;;18.80;53.10;;;;;;5052079;28;20182;-66
2022/12/20 12:59:33;;;;;;;4.13;0.95;;;18.80;53.20;;;;;;5052958;28;20178;-66
2022/12/20 13:02:04;;;;;;;1.65;0.82;;;18.80;53.00;;;;;;5045780;28;20183;-66
2022/12/20 13:05:01;;;;;;;1.00;0.80;;;18.80;53.10;;;;;;5051920;28;20218;-66